Time;durP1;ratioP1;P1;durP2;ratioP2;P2;SDS_P1;SDS_P2;PMS_P1;PMS_P2;Temp;Humidity;BMP_temperature;BMP_pressure;BME280_temperature;BME280_humidity;BME280_pressure;Samples;Min_cycle;Max_cycle;Signal;HPM_P1;HPM_P2
2021/10/05 00:00:11;;;;;;;;;;;;;;;;;;5046752;28;19969;-65
2021/10/05 00:02:37;;;;;;;;;;;;;;;;;;5046772;28;19909;-65
2021/10/05 00:05:03;;;;;;;;;;;;;;;;;;5046720;28;19964;-65
2021/10/05 00:07:29;;;;;;;;;;;;;;;;;;5046651;28;19905;-65
2021/10/05 00:09:55;;;;;;;;;;;;;;;;;;5046602;28;20306;-65
2021/10/05 00:12:21;;;;;;;;;;;;;;;;;;5046696;28;19908;-65
2021/10/05 00:14:50;;;;;;;;;;;;;;;;;;5046559;28;19932;-65
2021/10/05 00:17:16;;;;;;;;;;;;;;;;;;5046674;28;19912;-65
2021/10/05 00:19:42;;;;;;;;;;;;;;;;;;5046546;28;19905;-65
2021/10/05 00:22:08;;;;;;;;;;;;;;;;;;5046627;28;20287;-65
2021/10/05 00:24:34;;;;;;;;;;;;;;;;;;5046728;28;19905;-66
2021/10/05 00:27:00;;;;;;;;;;;;;;;;;;5045240;28;20427;-65
2021/10/05 00:29:26;;;;;;;;;;;;;;;;;;5046414;28;19912;-65
2021/10/05 00:31:52;;;;;;;;;;;;;;;;;;5046574;28;19912;-65
2021/10/05 00:34:17;;;;;;;;;;;;;;;;;;5048755;28;19988;-65
2021/10/05 00:36:43;;;;;;;;;;;;;;;;;;5050070;28;20012;-65
2021/10/05 00:39:09;;;;;;;;;;;;;;;;;;5050290;28;19905;-65
2021/10/05 00:41:35;;;;;;;;;;;;;;;;;;5050189;28;19905;-65
2021/10/05 00:44:01;;;;;;;;;;;;;;;;;;5049912;28;19905;-65
2021/10/05 00:46:27;;;;;;;;;;;;;;;;;;5050031;28;20007;-71
2021/10/05 00:48:53;;;;;;;;;;;;;;;;;;5050300;28;19905;-65
2021/10/05 00:51:19;;;;;;;;;;;;;;;;;;5049891;28;19905;-65
2021/10/05 00:53:45;;;;;;;;;;;;;;;;;;5049991;28;20276;-65
2021/10/05 00:56:11;;;;;;;;;;;;;;;;;;5049806;28;19976;-66
2021/10/05 00:58:37;;;;;;;;;;;;;;;;;;5051431;28;19905;-65
2021/10/05 01:01:03;;;;;;;;;;;;;;;;;;5049028;28;19965;-65
2021/10/05 01:03:29;;;;;;;;;;;;;;;;;;5049847;28;20401;-65
2021/10/05 01:05:55;;;;;;;;;;;;;;;;;;5049651;28;19911;-65
2021/10/05 01:08:20;;;;;;;;;;;;;;;;;;5049741;28;19943;-65
2021/10/05 01:10:46;;;;;;;;;;;;;;;;;;5049952;28;19905;-65
2021/10/05 01:13:12;;;;;;;;;;;;;;;;;;5050437;28;19905;-65
2021/10/05 01:15:38;;;;;;;;;;;;;;;;;;5050308;28;19912;-65
2021/10/05 01:18:04;;;;;;;;;;;;;;;;;;5049489;28;19932;-65
2021/10/05 01:20:30;;;;;;;;;;;;;;;;;;5030238;28;20265;-65
2021/10/05 01:22:56;;;;;;;;;;;;;;;;;;5029530;28;19927;-66
2021/10/05 01:25:22;;;;;;;;;;;;;;;;;;5029465;28;19963;-65
2021/10/05 01:27:48;;;;;;;;;;;;;;;;;;5029647;28;19906;-65
2021/10/05 01:30:14;;;;;;;;;;;;;;;;;;5029464;28;20284;-66
2021/10/05 01:32:40;;;;;;;;;;;;;;;;;;5029519;28;19912;-67
2021/10/05 01:35:06;;;;;;;;;;;;;;;;;;5029244;28;19909;-65
2021/10/05 01:37:32;;;;;;;;;;;;;;;;;;5029333;28;19905;-65
2021/10/05 01:39:58;;;;;;;;;;;;;;;;;;5029435;28;19905;-65
2021/10/05 01:42:24;;;;;;;;;;;;;;;;;;5029383;28;19906;-65
2021/10/05 01:44:51;;;;;;;;;;;;;;;;;;5027813;28;20121;-65
2021/10/05 01:47:17;;;;;;;;;;;;;;;;;;5029563;28;19933;-65
2021/10/05 01:49:43;;;;;;;;;;;;;;;;;;5027770;28;19905;-65
2021/10/05 01:52:09;;;;;;;;;;;;;;;;;;5028932;28;19906;-65
2021/10/05 01:54:34;;;;;;;;;;;;;;;;;;5027853;28;19989;-66
2021/10/05 01:57:00;;;;;;;;;;;;;;;;;;5028884;28;19913;-65
2021/10/05 01:59:26;;;;;;;;;;;;;;;;;;5028778;28;20375;-65
2021/10/05 02:01:52;;;;;;;;;;;;;;;;;;5028782;28;19905;-65
2021/10/05 02:04:18;;;;;;;;;;;;;;;;;;5028793;28;19937;-65
2021/10/05 02:06:45;;;;;;;;;;;;;;;;;;5028787;28;19905;-65
2021/10/05 02:09:12;;;;;;;;;;;;;;;;;;5029086;28;19973;-65
2021/10/05 02:11:38;;;;;;;;;;;;;;;;;;5028648;28;19905;-66
2021/10/05 02:14:04;;;;;;;;;;;;;;;;;;5028450;28;19912;-68
2021/10/05 02:16:30;;;;;;;;;;;;;;;;;;5028441;28;19909;-65
2021/10/05 02:18:56;;;;;;;;;;;;;;;;;;5028601;28;20276;-66
2021/10/05 02:21:22;;;;;;;;;;;;;;;;;;5028355;28;19927;-65
2021/10/05 02:26:32;;;;;;;;;;;;;;;;;;5028418;28;19912;-65
2021/10/05 02:28:58;;;;;;;;;;;;;;;;;;5028260;28;19911;-65
2021/10/05 02:31:24;;;;;;;;;;;;;;;;;;5027146;28;19906;-65
2021/10/05 02:33:53;;;;;;;;;;;;;;;;;;5028787;28;19916;-67
2021/10/05 02:36:19;;;;;;;;;;;;;;;;;;5029101;28;19910;-65
2021/10/05 02:38:45;;;;;;;;;;;;;;;;;;5028175;28;19940;-65
2021/10/05 02:41:11;;;;;;;;;;;;;;;;;;5028159;28;19967;-67
2021/10/05 02:43:37;;;;;;;;;;;;;;;;;;5028031;28;19910;-65
2021/10/05 02:46:03;;;;;;;;;;;;;;;;;;5027780;28;19960;-65
2021/10/05 02:48:29;;;;;;;;;;;;;;;;;;5027898;28;19912;-65
2021/10/05 02:50:55;;;;;;;;;;;;;;;;;;5026650;28;19905;-65
2021/10/05 02:53:20;;;;;;;;;;;;;;;;;;5027970;28;19999;-67
2021/10/05 02:55:47;;;;;;;;;;;;;;;;;;5026072;28;19988;-65
2021/10/05 02:58:13;;;;;;;;;;;;;;;;;;5027828;28;19909;-65
2021/10/05 03:00:40;;;;;;;;;;;;;;;;;;5027787;28;19959;-65
2021/10/05 03:03:05;;;;;;;;;;;;;;;;;;5027822;28;19905;-64
2021/10/05 03:05:31;;;;;;;;;;;;;;;;;;5027809;28;19913;-65
2021/10/05 03:07:57;;;;;;;;;;;;;;;;;;5027598;28;19912;-65
2021/10/05 03:10:23;;;;;;;;;;;;;;;;;;5027611;28;19927;-66
2021/10/05 03:12:49;;;;;;;;;;;;;;;;;;5027697;28;19912;-67
2021/10/05 03:15:15;;;;;;;;;;;;;;;;;;5028040;28;20368;-65
2021/10/05 03:17:41;;;;;;;;;;;;;;;;;;5027573;28;19909;-65
2021/10/05 03:20:07;;;;;;;;;;;;;;;;;;5027404;28;19972;-65
2021/10/05 03:22:33;;;;;;;;;;;;;;;;;;5027375;28;19906;-65
2021/10/05 03:24:59;;;;;;;;;;;;;;;;;;5027458;28;19913;-65
2021/10/05 03:27:25;;;;;;;;;;;;;;;;;;5027271;28;19911;-65
2021/10/05 03:29:51;;;;;;;;;;;;;;;;;;5027367;28;19960;-65
2021/10/05 03:32:17;;;;;;;;;;;;;;;;;;5027419;28;19905;-65
2021/10/05 03:34:43;;;;;;;;;;;;;;;;;;5027208;28;20308;-65
2021/10/05 03:37:08;;;;;;;;;;;;;;;;;;5027270;28;19912;-65
2021/10/05 03:39:34;;;;;;;;;;;;;;;;;;5027159;28;19906;-67
2021/10/05 03:42:00;;;;;;;;;;;;;;;;;;5027275;28;19910;-67
2021/10/05 03:44:26;;;;;;;;;;;;;;;;;;5027824;28;19953;-65
2021/10/05 03:46:52;;;;;;;;;;;;;;;;;;5027118;28;19913;-65
2021/10/05 03:49:19;;;;;;;;;;;;;;;;;;5027008;28;19945;-65
2021/10/05 03:51:46;;;;;;;;;;;;;;;;;;5026982;28;19927;-65
2021/10/05 03:54:12;;;;;;;;;;;;;;;;;;5027065;28;19913;-65
2021/10/05 03:56:38;;;;;;;;;;;;;;;;;;5026897;28;19910;-65
2021/10/05 03:59:04;;;;;;;;;;;;;;;;;;5027034;28;19912;-65
2021/10/05 04:01:30;;;;;;;;;;;;;;;;;;5026911;28;19910;-65
2021/10/05 04:03:56;;;;;;;;;;;;;;;;;;5027069;28;19935;-65
2021/10/05 04:06:22;;;;;;;;;;;;;;;;;;5026815;28;19906;-67
2021/10/05 04:08:48;;;;;;;;;;;;;;;;;;5028555;28;19911;-65
2021/10/05 04:11:17;;;;;;;;;;;;;;;;;;5030854;28;19952;-65
2021/10/05 04:13:43;;;;;;;;;;;;;;;;;;5030859;28;19905;-66
2021/10/05 04:16:09;;;;;;;;;;;;;;;;;;5030635;28;19917;-65
2021/10/05 04:18:34;;;;;;;;;;;;;;;;;;5030845;28;20015;-65
2021/10/05 04:21:01;;;;;;;;;;;;;;;;;;5031194;28;19945;-67
2021/10/05 04:23:27;;;;;;;;;;;;;;;;;;5030943;28;19905;-65
2021/10/05 04:25:52;;;;;;;;;;;;;;;;;;5031102;28;19912;-65
2021/10/05 04:28:18;;;;;;;;;;;;;;;;;;5031730;28;19913;-65
2021/10/05 04:30:44;;;;;;;;;;;;;;;;;;5030956;28;19905;-65
2021/10/05 04:33:10;;;;;;;;;;;;;;;;;;5030558;28;19909;-65
2021/10/05 04:35:36;;;;;;;;;;;;;;;;;;5030476;28;19910;-65
2021/10/05 04:38:02;;;;;;;;;;;;;;;;;;5030332;28;19905;-65
2021/10/05 04:40:28;;;;;;;;;;;;;;;;;;5031226;28;19941;-65
2021/10/05 04:42:54;;;;;;;;;;;;;;;;;;5030285;28;19906;-68
2021/10/05 04:45:20;;;;;;;;;;;;;;;;;;5030113;28;19917;-65
2021/10/05 04:47:46;;;;;;;;;;;;;;;;;;5030401;28;19912;-65
2021/10/05 04:50:14;;;;;;;;;;;;;;;;;;5030081;28;19941;-67
2021/10/05 04:52:40;;;;;;;;;;;;;;;;;;5030144;28;20392;-65
2021/10/05 04:55:06;;;;;;;;;;;;;;;;;;5030009;28;19917;-67
2021/10/05 04:57:32;;;;;;;;;;;;;;;;;;5029920;28;19912;-65
2021/10/05 04:59:58;;;;;;;;;;;;;;;;;;5030415;28;19937;-65
2021/10/05 05:02:24;;;;;;;;;;;;;;;;;;5030071;28;19905;-65
2021/10/05 05:04:50;;;;;;;;;;;;;;;;;;5029813;28;19906;-65
2021/10/05 05:07:16;;;;;;;;;;;;;;;;;;5030277;28;19912;-65
2021/10/05 05:09:41;;;;;;;;;;;;;;;;;;5029751;28;19909;-64
2021/10/05 05:12:07;;;;;;;;;;;;;;;;;;5029665;28;19980;-65
2021/10/05 05:14:34;;;;;;;;;;;;;;;;;;5030002;28;19945;-65
2021/10/05 05:16:59;;;;;;;;;;;;;;;;;;5029694;28;19906;-65
2021/10/05 05:19:25;;;;;;;;;;;;;;;;;;5029810;28;19976;-65
2021/10/05 05:21:53;;;;;;;;;;;;;;;;;;5029751;28;20267;-65
2021/10/05 05:24:19;;;;;;;;;;;;;;;;;;5028485;28;20346;-65
2021/10/05 05:26:45;;;;;;;;;;;;;;;;;;5029576;28;19906;-65
2021/10/05 05:29:11;;;;;;;;;;;;;;;;;;5029489;28;19917;-67
2021/10/05 05:31:37;;;;;;;;;;;;;;;;;;5040479;28;20342;-65
2021/10/05 05:34:03;;;;;;;;;;;;;;;;;;5049379;28;19905;-65
2021/10/05 05:36:28;;;;;;;;;;;;;;;;;;5049074;28;20398;-65
2021/10/05 05:38:54;;;;;;;;;;;;;;;;;;5049210;28;19964;-65
2021/10/05 05:41:20;;;;;;;;;;;;;;;;;;5048918;28;19909;-65
2021/10/05 05:43:46;;;;;;;;;;;;;;;;;;5049256;28;19905;-65
2021/10/05 05:46:12;;;;;;;;;;;;;;;;;;5048738;28;19917;-68
2021/10/05 05:48:38;;;;;;;;;;;;;;;;;;5048548;28;19928;-65
2021/10/05 05:51:04;;;;;;;;;;;;;;;;;;5048733;28;19904;-67
2021/10/05 05:53:30;;;;;;;;;;;;;;;;;;5049601;28;19913;-65
2021/10/05 05:55:56;;;;;;;;;;;;;;;;;;5048671;28;19909;-65
2021/10/05 05:58:22;;;;;;;;;;;;;;;;;;5048826;28;19905;-65
2021/10/05 06:00:48;;;;;;;;;;;;;;;;;;5048748;28;19905;-65
2021/10/05 06:03:14;;;;;;;;;;;;;;;;;;5048659;28;20002;-66
2021/10/05 06:05:40;;;;;;;;;;;;;;;;;;5048498;28;19937;-64
2021/10/05 06:08:06;;;;;;;;;;;;;;;;;;5048497;28;19905;-66
2021/10/05 06:10:32;;;;;;;;;;;;;;;;;;5048906;28;20350;-65
2021/10/05 06:12:58;;;;;;;;;;;;;;;;;;5049055;28;19905;-64
2021/10/05 06:15:24;;;;;;;;;;;;;;;;;;5048564;28;19908;-65
2021/10/05 06:17:50;;;;;;;;;;;;;;;;;;5048276;28;19952;-65
2021/10/05 06:20:16;;;;;;;;;;;;;;;;;;5048601;28;19905;-67
2021/10/05 06:22:42;;;;;;;;;;;;;;;;;;5048381;28;19909;-65
2021/10/05 06:25:08;;;;;;;;;;;;;;;;;;5048353;28;19905;-66
2021/10/05 06:27:34;;;;;;;;;;;;;;;;;;5048184;28;19912;-64
2021/10/05 06:30:00;;;;;;;;;;;;;;;;;;5048080;28;19905;-65
2021/10/05 06:32:26;;;;;;;;;;;;;;;;;;5047683;28;19911;-65
2021/10/05 06:34:52;;;;;;;;;;;;;;;;;;5047962;28;19943;-65
2021/10/05 06:37:18;;;;;;;;;;;;;;;;;;5048170;28;19905;-65
2021/10/05 06:39:43;;;;;;;;;;;;;;;;;;5048240;28;19996;-65
2021/10/05 06:42:09;;;;;;;;;;;;;;;;;;5047989;28;19905;-64
2021/10/05 06:44:35;;;;;;;;;;;;;;;;;;5047912;28;19921;-65
2021/10/05 06:47:01;;;;;;;;;;;;;;;;;;5048059;28;19968;-64
2021/10/05 06:49:27;;;;;;;;;;;;;;;;;;5047781;28;19912;-65
2021/10/05 06:51:53;;;;;;;;;;;;;;;;;;5047749;28;19905;-65
2021/10/05 06:54:19;;;;;;;;;;;;;;;;;;5047765;28;19988;-65
2021/10/05 06:56:45;;;;;;;;;;;;;;;;;;5046937;28;19909;-66
2021/10/05 06:59:11;;;;;;;;;;;;;;;;;;5047371;28;19975;-65
2021/10/05 07:01:37;;;;;;;;;;;;;;;;;;5047473;28;19905;-65
2021/10/05 07:04:03;;;;;;;;;;;;;;;;;;5047763;28;19905;-64
2021/10/05 07:06:29;;;;;;;;;;;;;;;;;;5047301;28;19939;-70
2021/10/05 07:08:55;;;;;;;;;;;;;;;;;;5047331;28;19904;-65
2021/10/05 07:11:21;;;;;;;;;;;;;;;;;;5045368;28;19909;-72
2021/10/05 07:13:47;;;;;;;;;;;;;;;;;;5043353;28;20280;-75
2021/10/05 07:16:13;;;;;;;;;;;;;;;;;;5045351;28;20386;-65
2021/10/05 07:18:39;;;;;;;;;;;;;;;;;;5046002;28;19905;-65
2021/10/05 07:21:05;;;;;;;;;;;;;;;;;;5045276;28;19912;-65
2021/10/05 07:23:31;;;;;;;;;;;;;;;;;;5043056;28;19952;-65
2021/10/05 07:25:57;;;;;;;;;;;;;;;;;;5041016;28;19906;-69
2021/10/05 07:28:23;;;;;;;;;;;;;;;;;;5030265;28;20013;-66
2021/10/05 07:30:49;;;;;;;;;;;;;;;;;;5031372;28;19913;-75
2021/10/05 07:33:15;;;;;;;;;;;;;;;;;;5039220;28;20319;-73
2021/10/05 07:35:41;;;;;;;;;;;;;;;;;;5030214;28;19917;-73
2021/10/05 07:38:07;;;;;;;;;;;;;;;;;;5037534;28;19912;-70
2021/10/05 07:40:33;;;;;;;;;;;;;;;;;;5040770;28;19995;-65
2021/10/05 07:42:59;;;;;;;;;;;;;;;;;;5043746;28;20419;-65
2021/10/05 07:45:25;;;;;;;;;;;;;;;;;;5034643;28;19940;-73
2021/10/05 07:47:51;;;;;;;;;;;;;;;;;;5037060;28;19973;-68
2021/10/05 07:50:17;;;;;;;;;;;;;;;;;;5046107;28;19913;-67
2021/10/05 07:52:43;;;;;;;;;;;;;;;;;;5046691;28;19972;-64
2021/10/05 07:55:09;;;;;;;;;;;;;;;;;;5041280;28;19909;-67
2021/10/05 07:57:35;;;;;;;;;;;;;;;;;;5026579;28;19905;-66
2021/10/05 08:00:01;;;;;;;;;;;;;;;;;;5027009;28;19916;-65
2021/10/05 08:02:27;;;;;;;;;;;;;;;;;;5026676;28;20287;-69
2021/10/05 08:04:53;;;;;;;;;;;;;;;;;;5026309;28;19913;-66
2021/10/05 08:07:19;;;;;;;;;;;;;;;;;;5026194;28;19952;-64
2021/10/05 08:09:45;;;;;;;;;;;;;;;;;;5031631;28;19909;-65
2021/10/05 08:12:11;;;;;;;;;;;;;;;;;;5046520;28;20386;-66
2021/10/05 08:14:39;;;;;;;;;;;;;;;;;;5044118;28;20325;-74
2021/10/05 08:17:05;;;;;;;;;;;;;;;;;;5036783;28;19917;-73
2021/10/05 08:19:31;;;;;;;;;;;;;;;;;;5030408;28;20378;-68
2021/10/05 08:21:57;;;;;;;;;;;;;;;;;;5020106;28;20430;-73
2021/10/05 08:24:23;;;;;;;;;;;;;;;;;;5017779;28;20296;-70
2021/10/05 08:26:49;;;;;;;;;;;;;;;;;;5019663;28;19973;-72
2021/10/05 08:29:18;;;;;;;;;;;;;;;;;;5022636;28;20228;-69
2021/10/05 08:31:44;;;;;;;;;;;;;;;;;;5019420;28;19920;-72
2021/10/05 08:34:10;;;;;;;;;;;;;;;;;;5020011;28;19911;-74
2021/10/05 08:36:36;;;;;;;;;;;;;;;;;;5018975;28;19913;-66
2021/10/05 08:39:02;;;;;;;;;;;;;;;;;;5033407;28;19931;-72
2021/10/05 08:41:27;;;;;;;;;;;;;;;;;;5031068;28;19927;-74
2021/10/05 08:43:53;;;;;;;;;;;;;;;;;;5012075;28;19910;-73
2021/10/05 08:46:20;;;;;;;;;;;;;;;;;;5012307;28;19925;-71
2021/10/05 08:48:46;;;;;;;;;;;;;;;;;;5014951;28;20016;-75
2021/10/05 08:51:12;;;;;;;;;;;;;;;;;;5019189;28;19909;-68
2021/10/05 08:53:38;;;;;;;;;;;;;;;;;;5036268;28;19976;-71
2021/10/05 08:56:04;;;;;;;;;;;;;;;;;;5028876;28;20012;-74
2021/10/05 08:58:30;;;;;;;;;;;;;;;;;;5023836;28;19991;-74
2021/10/05 09:00:56;;;;;;;;;;;;;;;;;;5027900;28;19909;-69
2021/10/05 09:03:22;;;;;;;;;;;;;;;;;;5025661;28;19920;-71
2021/10/05 09:05:49;;;;;;;;;;;;;;;;;;5040319;28;19909;-67
2021/10/05 09:08:15;;;;;;;;;;;;;;;;;;5039852;28;19929;-73
2021/10/05 09:10:41;;;;;;;;;;;;;;;;;;5037654;28;19912;-70
2021/10/05 09:13:07;;;;;;;;;;;;;;;;;;5044226;28;20411;-67
2021/10/05 09:15:33;;;;;;;;;;;;;;;;;;5048319;28;19968;-71
2021/10/05 09:17:58;;;;;;;;;;;;;;;;;;5036010;28;19909;-71
2021/10/05 09:20:24;;;;;;;;;;;;;;;;;;5023378;28;19993;-73
2021/10/05 09:22:50;;;;;;;;;;;;;;;;;;5018630;28;19941;-74
2021/10/05 09:25:16;;;;;;;;;;;;;;;;;;5016218;28;19920;-75
2021/10/05 09:27:42;;;;;;;;;;;;;;;;;;5033743;28;19916;-73
2021/10/05 09:30:08;;;;;;;;;;;;;;;;;;5033249;28;19909;-73
2021/10/05 09:32:34;;;;;;;;;;;;;;;;;;5033728;28;19995;-74
2021/10/05 09:35:00;;;;;;;;;;;;;;;;;;5022665;28;19913;-67
2021/10/05 09:37:26;;;;;;;;;;;;;;;;;;5027785;28;19971;-73
2021/10/05 09:39:52;;;;;;;;;;;;;;;;;;5034656;28;19909;-72
2021/10/05 09:42:24;;;;;;;;;;;;;;;;;;5030361;28;19909;-65
2021/10/05 09:44:50;;;;;;;;;;;;;;;;;;5034213;28;20656;-71
2021/10/05 09:47:16;;;;;;;;;;;;;;;;;;5036505;28;19955;-71
2021/10/05 09:49:42;;;;;;;;;;;;;;;;;;5027045;28;19946;-71
2021/10/05 09:52:09;;;;;;;;;;;;;;;;;;5032470;28;19995;-70
2021/10/05 09:54:35;;;;;;;;;;;;;;;;;;5047570;28;19905;-66
2021/10/05 09:57:01;;;;;;;;;;;;;;;;;;5045278;28;19920;-74
2021/10/05 09:59:27;;;;;;;;;;;;;;;;;;5030774;28;19905;-66
2021/10/05 10:01:54;;;;;;;;;;;;;;;;;;5026973;28;20237;-67
2021/10/05 10:04:20;;;;;;;;;;;;;;;;;;5022083;28;19909;-69
2021/10/05 10:06:46;;;;;;;;;;;;;;;;;;5025916;28;19941;-67
2021/10/05 10:09:12;;;;;;;;;;;;;;;;;;5033655;28;19956;-73
2021/10/05 10:11:38;;;;;;;;;;;;;;;;;;5033223;28;19916;-69
2021/10/05 10:14:04;;;;;;;;;;;;;;;;;;5016740;28;19913;-71
2021/10/05 10:16:29;;;;;;;;;;;;;;;;;;5021637;28;19909;-72
2021/10/05 10:18:58;;;;;;;;;;;;;;;;;;5018604;28;20439;-73
2021/10/05 10:21:25;;;;;;;;;;;;;;;;;;5018775;28;19912;-73
2021/10/05 10:23:51;;;;;;;;;;;;;;;;;;5017033;28;20299;-73
2021/10/05 10:26:17;;;;;;;;;;;;;;;;;;5019109;28;19959;-73
2021/10/05 10:28:43;;;;;;;;;;;;;;;;;;5018780;28;19910;-71
2021/10/05 10:31:09;;;;;;;;;;;;;;;;;;5017366;28;19905;-68
2021/10/05 10:33:35;;;;;;;;;;;;;;;;;;5035563;28;19909;-74
2021/10/05 10:36:00;;;;;;;;;;;;;;;;;;5022206;28;20014;-72
2021/10/05 10:38:26;;;;;;;;;;;;;;;;;;5024836;28;20011;-74
2021/10/05 10:40:52;;;;;;;;;;;;;;;;;;5019608;28;20363;-75
2021/10/05 10:43:20;;;;;;;;;;;;;;;;;;5035253;28;19967;-65
2021/10/05 10:45:46;;;;;;;;;;;;;;;;;;5018477;28;20015;-70
2021/10/05 10:48:12;;;;;;;;;;;;;;;;;;5015975;28;19953;-71
2021/10/05 10:50:38;;;;;;;;;;;;;;;;;;5035445;28;19971;-72
2021/10/05 10:53:04;;;;;;;;;;;;;;;;;;5027374;28;19906;-69
2021/10/05 10:55:29;;;;;;;;;;;;;;;;;;5015988;28;19913;-72
2021/10/05 10:57:55;;;;;;;;;;;;;;;;;;5026833;28;19909;-66
2021/10/05 11:00:21;;;;;;;;;;;;;;;;;;5032928;28;19967;-73
2021/10/05 11:02:47;;;;;;;;;;;;;;;;;;5022785;28;19913;-73
2021/10/05 11:05:14;;;;;;;;;;;;;;;;;;5018401;28;19916;-69
2021/10/05 11:07:40;;;;;;;;;;;;;;;;;;5023800;28;19940;-71
2021/10/05 11:10:06;;;;;;;;;;;;;;;;;;5032089;28;19963;-65
2021/10/05 11:12:32;;;;;;;;;;;;;;;;;;5036618;28;20267;-67
2021/10/05 11:14:59;;;;;;;;;;;;;;;;;;5035404;28;19909;-71
2021/10/05 11:17:25;;;;;;;;;;;;;;;;;;5038676;28;20328;-71
2021/10/05 11:19:51;;;;;;;;;;;;;;;;;;5037707;28;19960;-67
2021/10/05 11:22:17;;;;;;;;;;;;;;;;;;5044497;28;19909;-71
2021/10/05 11:24:43;;;;;;;;;;;;;;;;;;5045353;28;19905;-68
2021/10/05 11:27:09;;;;;;;;;;;;;;;;;;5041869;28;19916;-71
2021/10/05 11:29:35;;;;;;;;;;;;;;;;;;5037943;28;19909;-68
2021/10/05 11:32:05;;;;;;;;;;;;;;;;;;5040471;28;19920;-68
2021/10/05 11:34:32;;;;;;;;;;;;;;;;;;5030681;28;19913;-73
2021/10/05 11:36:58;;;;;;;;;;;;;;;;;;5015019;28;19913;-74
2021/10/05 11:39:23;;;;;;;;;;;;;;;;;;5015708;28;20012;-69
2021/10/05 11:41:50;;;;;;;;;;;;;;;;;;5016195;28;19916;-73
2021/10/05 11:44:18;;;;;;;;;;;;;;;;;;5033313;28;20420;-70
2021/10/05 11:46:44;;;;;;;;;;;;;;;;;;5031504;28;19913;-65
2021/10/05 11:49:09;;;;;;;;;;;;;;;;;;5037072;28;19909;-74
2021/10/05 11:51:35;;;;;;;;;;;;;;;;;;5033027;28;19905;-74
2021/10/05 11:54:01;;;;;;;;;;;;;;;;;;5033416;28;19919;-73
2021/10/05 11:56:28;;;;;;;;;;;;;;;;;;5021681;28;19913;-72
2021/10/05 11:58:54;;;;;;;;;;;;;;;;;;5025954;28;19941;-74
2021/10/05 12:01:23;;;;;;;;;;;;;;;;;;5037202;28;19913;-68
2021/10/05 12:03:49;;;;;;;;;;;;;;;;;;5033510;28;19957;-73
2021/10/05 12:06:15;;;;;;;;;;;;;;;;;;5018976;28;19917;-69
2021/10/05 12:08:41;;;;;;;;;;;;;;;;;;5023936;28;20397;-67
2021/10/05 12:11:07;;;;;;;;;;;;;;;;;;5038420;28;19916;-68
2021/10/05 12:13:33;;;;;;;;;;;;;;;;;;5038119;28;19912;-68
2021/10/05 12:15:59;;;;;;;;;;;;;;;;;;5036911;28;19909;-75
2021/10/05 12:18:24;;;;;;;;;;;;;;;;;;5036900;28;19909;-73
2021/10/05 12:20:50;;;;;;;;;;;;;;;;;;5037808;28;19913;-74
2021/10/05 12:23:16;;;;;;;;;;;;;;;;;;5037843;28;19964;-70
2021/10/05 12:25:42;;;;;;;;;;;;;;;;;;5036466;28;19906;-68
2021/10/05 12:28:08;;;;;;;;;;;;;;;;;;5036906;28;19905;-72
2021/10/05 12:30:34;;;;;;;;;;;;;;;;;;5040175;28;19912;-69
2021/10/05 12:33:00;;;;;;;;;;;;;;;;;;5041430;28;19936;-69
2021/10/05 12:35:26;;;;;;;;;;;;;;;;;;5040282;28;19916;-72
2021/10/05 12:37:52;;;;;;;;;;;;;;;;;;5039301;28;20371;-71
2021/10/05 12:40:18;;;;;;;;;;;;;;;;;;5039756;28;19951;-74
2021/10/05 12:42:44;;;;;;;;;;;;;;;;;;5038800;28;19916;-72
2021/10/05 12:45:10;;;;;;;;;;;;;;;;;;5038569;28;19921;-71
2021/10/05 12:47:36;;;;;;;;;;;;;;;;;;5038587;28;20360;-73
2021/10/05 12:50:02;;;;;;;;;;;;;;;;;;5041186;28;20308;-72
2021/10/05 12:52:28;;;;;;;;;;;;;;;;;;5040696;28;20379;-67
2021/10/05 12:54:54;;;;;;;;;;;;;;;;;;5038478;28;20403;-75
2021/10/05 12:57:19;;;;;;;;;;;;;;;;;;5037407;28;19916;-69
2021/10/05 12:59:45;;;;;;;;;;;;;;;;;;5035963;28;19909;-73
2021/10/05 13:02:11;;;;;;;;;;;;;;;;;;5047136;28;19952;-70
2021/10/05 13:04:37;;;;;;;;;;;;;;;;;;5045292;28;19927;-69
2021/10/05 13:07:03;;;;;;;;;;;;;;;;;;5045407;28;19913;-71
2021/10/05 13:09:29;;;;;;;;;;;;;;;;;;5045989;28;19905;-70
2021/10/05 13:11:55;;;;;;;;;;;;;;;;;;5030953;28;19976;-69
2021/10/05 13:14:21;;;;;;;;;;;;;;;;;;5022921;28;19909;-71
2021/10/05 13:16:47;;;;;;;;;;;;;;;;;;5022990;28;19909;-74
2021/10/05 13:19:16;;;;;;;;;;;;;;;;;;5022789;28;20014;-71
2021/10/05 13:21:42;;;;;;;;;;;;;;;;;;5018264;28;19945;-73
2021/10/05 13:24:08;;;;;;;;;;;;;;;;;;5019852;28;20431;-72
2021/10/05 13:26:34;;;;;;;;;;;;;;;;;;5017945;28;19909;-69
2021/10/05 13:29:00;;;;;;;;;;;;;;;;;;5018561;28;19910;-72
2021/10/05 13:31:28;;;;;;;;;;;;;;;;;;5042929;28;19951;-72
2021/10/05 13:33:54;;;;;;;;;;;;;;;;;;5046412;28;19935;-73
2021/10/05 13:36:19;;;;;;;;;;;;;;;;;;5040021;28;20043;-80
2021/10/05 13:38:45;;;;;;;;;;;;;;;;;;5035628;28;19988;-77
2021/10/05 13:41:11;;;;;;;;;;;;;;;;;;5033415;28;19920;-69
2021/10/05 13:43:37;;;;;;;;;;;;;;;;;;5035189;28;19909;-79
2021/10/05 13:46:03;;;;;;;;;;;;;;;;;;5033834;28;19970;-76
2021/10/05 13:48:29;;;;;;;;;;;;;;;;;;5033642;28;19959;-76
2021/10/05 13:50:55;;;;;;;;;;;;;;;;;;5034858;28;19913;-79
2021/10/05 13:53:22;;;;;;;;;;;;;;;;;;5035124;28;19909;-76
2021/10/05 13:55:48;;;;;;;;;;;;;;;;;;5032503;28;20279;-74
2021/10/05 13:58:14;;;;;;;;;;;;;;;;;;5033391;28;19920;-75
2021/10/05 14:00:40;;;;;;;;;;;;;;;;;;5033180;28;20290;-75
2021/10/05 14:03:06;;;;;;;;;;;;;;;;;;5021827;28;19913;-76
2021/10/05 14:05:32;;;;;;;;;;;;;;;;;;5032646;28;20292;-78
2021/10/05 14:07:58;;;;;;;;;;;;;;;;;;5013376;28;20439;-74
2021/10/05 14:10:23;;;;;;;;;;;;;;;;;;5013468;28;19910;-75
2021/10/05 14:12:49;;;;;;;;;;;;;;;;;;5014581;28;19964;-75
2021/10/05 14:15:15;;;;;;;;;;;;;;;;;;5027321;28;19916;-70
2021/10/05 14:17:41;;;;;;;;;;;;;;;;;;5032787;28;19967;-77
2021/10/05 14:20:07;;;;;;;;;;;;;;;;;;5033480;28;19932;-74
2021/10/05 14:22:33;;;;;;;;;;;;;;;;;;5033829;28;19909;-73
2021/10/05 14:24:59;;;;;;;;;;;;;;;;;;5041054;28;20344;-66
2021/10/05 14:27:28;;;;;;;;;;;;;;;;;;5044752;28;19909;-65
2021/10/05 14:29:54;;;;;;;;;;;;;;;;;;5045973;28;19905;-68
2021/10/05 14:32:20;;;;;;;;;;;;;;;;;;5045396;28;19966;-66
2021/10/05 14:34:46;;;;;;;;;;;;;;;;;;5031190;28;19917;-69
2021/10/05 14:37:12;;;;;;;;;;;;;;;;;;5025879;28;20275;-74
2021/10/05 14:39:38;;;;;;;;;;;;;;;;;;5025665;28;20394;-66
2021/10/05 14:42:04;;;;;;;;;;;;;;;;;;5025533;28;19913;-65
2021/10/05 14:44:30;;;;;;;;;;;;;;;;;;5025694;28;19971;-64
2021/10/05 14:46:56;;;;;;;;;;;;;;;;;;5025160;28;19905;-72
2021/10/05 14:49:22;;;;;;;;;;;;;;;;;;5024956;28;19920;-67
2021/10/05 14:51:47;;;;;;;;;;;;;;;;;;5034363;28;19912;-65
2021/10/05 14:54:14;;;;;;;;;;;;;;;;;;5035222;28;20355;-69
2021/10/05 14:56:40;;;;;;;;;;;;;;;;;;5042750;28;19916;-70
2021/10/05 14:59:06;;;;;;;;;;;;;;;;;;5041722;28;19927;-68
2021/10/05 15:01:33;;;;;;;;;;;;;;;;;;5027664;28;20004;-67
2021/10/05 15:04:04;;;;;;;;;;;;;;;;;;5034054;28;19905;-72
2021/10/05 15:06:30;;;;;;;;;;;;;;;;;;5040658;28;19971;-72
2021/10/05 15:08:56;;;;;;;;;;;;;;;;;;5020791;28;19905;-69
2021/10/05 15:11:22;;;;;;;;;;;;;;;;;;5020548;28;19937;-68
2021/10/05 15:13:48;;;;;;;;;;;;;;;;;;5019711;28;19905;-70
2021/10/05 15:16:14;;;;;;;;;;;;;;;;;;5020684;28;20360;-69
2021/10/05 15:18:41;;;;;;;;;;;;;;;;;;5018636;28;19916;-73
2021/10/05 15:21:07;;;;;;;;;;;;;;;;;;5019044;28;19932;-73
2021/10/05 15:23:33;;;;;;;;;;;;;;;;;;5020296;28;20360;-70
2021/10/05 15:25:58;;;;;;;;;;;;;;;;;;5018896;28;20017;-67
2021/10/05 15:28:24;;;;;;;;;;;;;;;;;;5019979;28;19909;-74
2021/10/05 15:30:50;;;;;;;;;;;;;;;;;;5021613;28;19905;-69
2021/10/05 15:33:16;;;;;;;;;;;;;;;;;;5017872;28;19992;-73
2021/10/05 15:35:42;;;;;;;;;;;;;;;;;;5020881;28;19917;-68
2021/10/05 15:38:08;;;;;;;;;;;;;;;;;;5020514;28;19916;-73
2021/10/05 15:40:52;;;;;;;;;;;;;;;;;;5017081;28;19913;-74
2021/10/05 15:43:18;;;;;;;;;;;;;;;;;;5016539;28;19909;-72
2021/10/05 15:45:44;;;;;;;;;;;;;;;;;;5015109;28;20360;-71
2021/10/05 15:48:12;;;;;;;;;;;;;;;;;;5016628;28;20391;-73
2021/10/05 15:51:03;;;;;;;;;;;;;;;;;;5015774;28;19910;-73
2021/10/05 15:53:29;;;;;;;;;;;;;;;;;;5016114;28;19909;-67
2021/10/05 15:55:55;;;;;;;;;;;;;;;;;;5016355;28;20395;-74
2021/10/05 15:58:21;;;;;;;;;;;;;;;;;;5016434;28;20367;-70
2021/10/05 16:00:46;;;;;;;;;;;;;;;;;;5015269;28;19916;-74
2021/10/05 16:03:13;;;;;;;;;;;;;;;;;;5015173;28;19905;-71
2021/10/05 16:05:40;;;;;;;;;;;;;;;;;;5020625;28;19932;-74
2021/10/05 16:08:06;;;;;;;;;;;;;;;;;;5021651;28;20380;-67
2021/10/05 16:10:32;;;;;;;;;;;;;;;;;;5022451;28;19909;-70
2021/10/05 16:12:58;;;;;;;;;;;;;;;;;;5024174;28;20290;-72
2021/10/05 16:15:24;;;;;;;;;;;;;;;;;;5022223;28;19919;-66
2021/10/05 16:17:50;;;;;;;;;;;;;;;;;;5025949;28;19941;-68
2021/10/05 16:20:16;;;;;;;;;;;;;;;;;;5017795;28;19925;-70
2021/10/05 16:22:42;;;;;;;;;;;;;;;;;;5017794;28;19968;-76
2021/10/05 16:25:08;;;;;;;;;;;;;;;;;;5015436;28;20379;-73
2021/10/05 16:27:36;;;;;;;;;;;;;;;;;;5014524;28;19997;-72
2021/10/05 16:30:02;;;;;;;;;;;;;;;;;;5017312;28;19911;-70
2021/10/05 16:32:28;;;;;;;;;;;;;;;;;;5024515;28;19913;-72
2021/10/05 16:34:54;;;;;;;;;;;;;;;;;;5025861;28;19909;-66
2021/10/05 16:37:20;;;;;;;;;;;;;;;;;;5025672;28;20056;-64
2021/10/05 16:39:46;;;;;;;;;;;;;;;;;;5025072;28;19912;-71